createdAt,value
2018-03-18T00:04:39.043Z,14.89
2018-03-18T00:07:04.879Z,15.05
2018-03-18T00:09:30.690Z,15.05
2018-03-18T00:11:56.534Z,15.20
2018-03-18T00:14:22.355Z,14.98
2018-03-18T00:16:48.175Z,14.95
2018-03-18T00:19:13.992Z,14.93
2018-03-18T00:21:39.809Z,14.85
2018-03-18T00:24:05.663Z,15.06
2018-03-18T00:26:31.478Z,14.90
2018-03-18T00:28:57.352Z,14.93
2018-03-18T00:31:23.171Z,15.00
2018-03-18T00:33:49.001Z,15.04
2018-03-18T00:36:14.823Z,14.82
2018-03-18T00:38:40.643Z,15.04
2018-03-18T00:41:06.498Z,15.12
2018-03-18T00:43:32.318Z,15.13
2018-03-18T00:45:58.234Z,15.06
2018-03-18T00:48:24.040Z,15.00
2018-03-18T00:50:49.850Z,14.91
2018-03-18T00:53:16.550Z,14.95
2018-03-18T00:55:42.363Z,14.84
2018-03-18T00:58:08.179Z,14.76
2018-03-18T01:00:33.998Z,14.74
2018-03-18T01:02:59.841Z,14.86
2018-03-18T01:05:25.654Z,14.52
2018-03-18T01:07:51.467Z,14.69
2018-03-18T01:10:17.283Z,14.73
2018-03-18T01:12:44.074Z,14.93
2018-03-18T01:15:09.935Z,14.83
2018-03-18T01:17:35.757Z,14.76
2018-03-18T01:20:01.580Z,14.86
2018-03-18T01:22:27.401Z,14.88
2018-03-18T01:24:53.207Z,15.03
2018-03-18T01:27:19.023Z,15.05
2018-03-18T01:29:44.847Z,15.27
2018-03-18T01:32:10.654Z,14.86
2018-03-18T01:34:36.470Z,14.96
2018-03-18T01:37:02.283Z,14.88
2018-03-18T01:39:28.095Z,14.83
2018-03-18T01:41:53.946Z,14.59
2018-03-18T01:44:19.758Z,15.01
2018-03-18T01:46:45.608Z,14.83
2018-03-18T01:49:11.418Z,15.17
2018-03-18T01:51:37.233Z,15.00
2018-03-18T01:54:03.046Z,14.87
2018-03-18T01:56:29.760Z,15.01
2018-03-18T01:58:55.570Z,14.99
2018-03-18T02:01:21.386Z,14.70
2018-03-18T02:03:47.234Z,14.96
2018-03-18T02:06:13.052Z,14.86
2018-03-18T02:08:39.702Z,14.86
2018-03-18T02:11:05.550Z,15.00
2018-03-18T02:13:32.208Z,14.66
2018-03-18T02:15:58.050Z,14.65
2018-03-18T02:18:23.895Z,14.73
2018-03-18T02:20:49.700Z,14.73
2018-03-18T02:23:15.545Z,14.84
2018-03-18T02:25:41.350Z,14.79
2018-03-18T02:28:07.939Z,14.84
2018-03-18T02:30:33.758Z,14.53
2018-03-18T02:32:59.561Z,14.77
2018-03-18T02:35:25.368Z,14.66
2018-03-18T02:37:51.182Z,14.63
2018-03-18T02:40:16.995Z,14.61
2018-03-18T02:42:42.804Z,14.47
2018-03-18T02:45:15.708Z,14.57
2018-03-18T02:47:41.518Z,14.63
2018-03-18T02:50:07.332Z,14.65
2018-03-18T02:52:33.143Z,14.58
2018-03-18T02:54:58.954Z,14.58
2018-03-18T02:57:24.789Z,14.47
2018-03-18T02:59:50.603Z,14.53
2018-03-18T03:02:16.410Z,14.63
2018-03-18T03:04:42.232Z,14.66
2018-03-18T03:07:08.059Z,14.41
2018-03-18T03:09:33.884Z,14.65
2018-03-18T03:11:59.711Z,14.41
2018-03-18T03:14:25.602Z,14.51
2018-03-18T03:16:52.354Z,14.61
2018-03-18T03:19:19.250Z,14.56
2018-03-18T03:21:45.942Z,14.34
2018-03-18T03:24:11.752Z,14.30
2018-03-18T03:26:37.574Z,14.32
2018-03-18T03:29:04.280Z,14.54
2018-03-18T03:31:31.119Z,14.73
2018-03-18T03:33:56.929Z,14.66
2018-03-18T03:36:22.779Z,14.61
2018-03-18T03:38:48.590Z,14.60
2018-03-18T03:41:14.433Z,14.65
2018-03-18T03:43:40.254Z,14.52
2018-03-18T03:46:06.130Z,14.54
2018-03-18T03:48:31.947Z,14.82
2018-03-18T03:50:57.768Z,14.59
2018-03-18T03:53:23.584Z,14.55
2018-03-18T03:55:49.401Z,14.55
2018-03-18T03:58:15.254Z,14.44
2018-03-18T04:00:41.071Z,14.66
2018-03-18T04:03:06.938Z,14.79
2018-03-18T04:05:32.756Z,14.96
2018-03-18T04:07:58.610Z,14.92
2018-03-18T04:10:24.430Z,14.80
2018-03-18T04:12:50.253Z,14.74
2018-03-18T04:15:16.124Z,14.50
2018-03-18T04:17:41.938Z,14.80
2018-03-18T04:20:07.754Z,14.90
2018-03-18T04:22:34.563Z,14.76
2018-03-18T04:25:00.386Z,14.57
2018-03-18T04:27:26.203Z,14.54
2018-03-18T04:29:52.023Z,14.66
2018-03-18T04:32:17.842Z,14.63
2018-03-18T04:34:43.659Z,14.68
2018-03-18T04:37:09.475Z,14.47
2018-03-18T04:39:36.196Z,14.60
2018-03-18T04:42:02.981Z,14.63
2018-03-18T04:44:29.757Z,14.62
2018-03-18T04:46:56.494Z,14.39
2018-03-18T04:49:22.312Z,14.44
2018-03-18T04:51:48.128Z,14.29
2018-03-18T04:54:15.003Z,14.55
2018-03-18T04:56:40.859Z,14.63
2018-03-18T04:59:06.671Z,14.46
2018-03-18T05:01:32.522Z,14.36
2018-03-18T05:03:59.175Z,14.38
2018-03-18T05:06:24.990Z,14.56
2018-03-18T05:08:50.820Z,14.41
2018-03-18T05:11:16.655Z,14.47
2018-03-18T05:13:42.497Z,14.55
2018-03-18T05:16:08.362Z,14.77
2018-03-18T05:18:34.187Z,14.55
2018-03-18T05:21:01.018Z,14.30
2018-03-18T05:23:26.834Z,14.60
2018-03-18T05:25:52.690Z,14.65
2018-03-18T05:28:18.504Z,14.46
2018-03-18T05:30:44.361Z,14.55
2018-03-18T05:33:10.190Z,14.57
2018-03-18T05:35:36.961Z,14.56
2018-03-18T05:38:02.801Z,14.59
2018-03-18T05:40:29.507Z,14.45
2018-03-18T05:42:55.332Z,14.29
2018-03-18T05:45:21.162Z,14.31
2018-03-18T05:47:46.987Z,14.40
2018-03-18T05:50:13.640Z,14.65
2018-03-18T05:52:40.340Z,14.60
2018-03-18T05:55:06.161Z,14.49
2018-03-18T05:57:32.015Z,14.26
2018-03-18T05:59:57.881Z,14.40
2018-03-18T06:02:24.534Z,14.53
2018-03-18T06:04:50.348Z,14.17
2018-03-18T06:07:17.154Z,14.53
2018-03-18T06:09:43.962Z,14.43
2018-03-18T06:12:10.785Z,14.66
2018-03-18T06:14:36.611Z,14.60
2018-03-18T06:17:03.346Z,14.25
2018-03-18T06:19:30.107Z,14.69
2018-03-18T06:21:56.910Z,14.49
2018-03-18T06:24:22.723Z,14.55
2018-03-18T06:26:48.576Z,14.51
2018-03-18T06:29:15.211Z,14.56
2018-03-18T06:31:41.054Z,14.36
2018-03-18T06:34:07.915Z,14.20
2018-03-18T06:36:33.731Z,14.33
2018-03-18T06:38:59.547Z,14.37
2018-03-18T06:41:25.383Z,14.39
2018-03-18T06:43:51.197Z,14.61
2018-03-18T06:46:17.060Z,14.53
2018-03-18T06:48:42.890Z,14.59
2018-03-18T06:51:08.716Z,14.43
2018-03-18T06:53:35.479Z,14.52
2018-03-18T06:56:02.291Z,14.58
2018-03-18T06:58:28.131Z,14.49
2018-03-18T07:00:53.944Z,14.48
2018-03-18T07:03:20.623Z,14.55
2018-03-18T07:05:46.457Z,14.54
2018-03-18T07:08:12.273Z,14.39
2018-03-18T07:10:38.107Z,14.40
2018-03-18T07:13:04.006Z,14.43
2018-03-18T07:15:29.872Z,14.32
2018-03-18T07:17:55.695Z,14.44
2018-03-18T07:20:21.512Z,14.42
2018-03-18T07:22:47.325Z,14.64
2018-03-18T07:25:13.162Z,14.45
2018-03-18T07:27:38.968Z,14.47
2018-03-18T07:30:04.787Z,14.51
2018-03-18T07:32:31.443Z,14.58
2018-03-18T07:34:57.265Z,14.41
2018-03-18T07:37:23.110Z,14.54
2018-03-18T07:39:48.942Z,14.39
2018-03-18T07:42:14.762Z,14.47
2018-03-18T07:44:40.584Z,14.39
2018-03-18T07:47:06.449Z,14.46
2018-03-18T07:49:32.307Z,14.40
2018-03-18T07:51:58.171Z,14.65
2018-03-18T07:54:24.903Z,14.55
2018-03-18T07:56:50.707Z,14.49
2018-03-18T07:59:16.524Z,14.64
2018-03-18T08:01:42.388Z,14.79
2018-03-18T08:04:09.075Z,14.65
2018-03-18T08:06:34.899Z,14.76
2018-03-18T08:09:01.718Z,14.77
2018-03-18T08:11:28.391Z,14.56
2018-03-18T08:13:54.202Z,14.66
2018-03-18T08:16:21.010Z,14.70
2018-03-18T08:18:47.650Z,14.78
2018-03-18T08:21:13.516Z,14.86
2018-03-18T08:23:39.333Z,14.88
2018-03-18T08:26:05.199Z,15.07
2018-03-18T08:28:31.067Z,14.93
2018-03-18T08:30:57.803Z,14.78
2018-03-18T08:33:24.518Z,14.99
2018-03-18T08:35:50.366Z,14.88
2018-03-18T08:38:16.190Z,14.87
2018-03-18T08:40:42.123Z,14.94
2018-03-18T08:43:07.948Z,14.85
2018-03-18T08:45:34.558Z,14.85
2018-03-18T08:48:00.374Z,14.94
2018-03-18T08:50:26.279Z,14.98
2018-03-18T08:52:52.106Z,14.91
2018-03-18T08:55:18.825Z,14.55
2018-03-18T08:57:44.644Z,14.11
2018-03-18T09:00:10.512Z,14.13
2018-03-18T09:02:36.357Z,14.13
2018-03-18T09:05:02.167Z,14.32
2018-03-18T09:07:28.060Z,14.24
2018-03-18T09:09:54.899Z,14.34
2018-03-18T09:12:20.946Z,14.57
2018-03-18T09:14:46.767Z,14.57
2018-03-18T09:17:12.582Z,14.58
2018-03-18T09:19:38.404Z,14.63
2018-03-18T09:22:05.177Z,14.80
2018-03-18T09:24:31.965Z,14.62
2018-03-18T09:26:57.782Z,14.76
2018-03-18T09:29:23.604Z,14.82
2018-03-18T09:31:49.468Z,14.39
2018-03-18T09:34:15.295Z,14.77
2018-03-18T09:36:42.015Z,14.69
2018-03-18T09:39:07.866Z,14.69
2018-03-18T09:41:33.689Z,14.69
2018-03-18T09:43:59.506Z,14.68
2018-03-18T09:46:25.389Z,14.70
2018-03-18T09:48:51.255Z,14.55
2018-03-18T09:51:17.110Z,14.52
2018-03-18T09:53:42.922Z,14.86
2018-03-18T09:56:08.779Z,15.07
2018-03-18T09:58:34.605Z,15.12
2018-03-18T10:01:00.433Z,15.04
2018-03-18T10:03:26.284Z,14.90
2018-03-18T10:05:52.105Z,14.94
2018-03-18T10:08:18.820Z,14.95
2018-03-18T10:10:44.638Z,14.84
2018-03-18T10:13:10.454Z,15.13
2018-03-18T10:15:36.271Z,15.12
2018-03-18T10:18:02.091Z,14.95
2018-03-18T10:20:27.986Z,14.82
2018-03-18T10:22:54.009Z,15.00
2018-03-18T10:25:20.740Z,14.79
2018-03-18T10:27:46.563Z,14.90
2018-03-18T10:30:12.388Z,14.96
2018-03-18T10:32:38.248Z,14.81
2018-03-18T10:35:04.075Z,14.02
2018-03-18T10:37:29.894Z,14.62
2018-03-18T10:39:55.790Z,14.47
2018-03-18T10:42:21.609Z,14.60
2018-03-18T10:44:47.454Z,14.44
2018-03-18T10:47:13.363Z,14.62
2018-03-18T10:49:39.158Z,14.77
2018-03-18T10:52:05.033Z,14.66
2018-03-18T10:54:31.778Z,14.58
2018-03-18T10:56:58.410Z,14.67
2018-03-18T10:59:25.165Z,14.80
2018-03-18T11:01:55.763Z,14.69
2018-03-18T11:04:21.614Z,14.81
2018-03-18T11:06:47.461Z,14.84
2018-03-18T11:09:20.278Z,14.88
2018-03-18T11:11:46.092Z,14.95
2018-03-18T11:14:13.054Z,14.96
2018-03-18T11:16:38.895Z,14.93
2018-03-18T11:19:04.745Z,14.68
2018-03-18T11:21:30.616Z,14.86
2018-03-18T11:23:56.490Z,14.81
2018-03-18T11:26:22.344Z,14.96
2018-03-18T11:28:48.165Z,14.83
2018-03-18T11:31:28.882Z,15.04
2018-03-18T11:33:54.821Z,15.24
2018-03-18T11:36:20.683Z,13.79
2018-03-18T11:38:46.534Z,14.42
2018-03-18T11:41:12.363Z,14.19
2018-03-18T11:43:38.292Z,14.62
2018-03-18T11:46:04.143Z,14.44
2018-03-18T11:48:30.138Z,14.74
2018-03-18T11:50:55.963Z,14.85
2018-03-18T11:53:22.562Z,15.14
2018-03-18T11:55:49.329Z,15.21
2018-03-18T11:58:15.172Z,14.99
2018-03-18T12:00:41.039Z,14.93
2018-03-18T12:03:06.883Z,14.98
2018-03-18T12:05:32.738Z,15.20
2018-03-18T12:07:58.555Z,15.18
2018-03-18T12:10:24.403Z,15.15
2018-03-18T12:12:50.206Z,15.10
2018-03-18T12:15:16.023Z,15.11
2018-03-18T12:17:41.839Z,15.27
2018-03-18T12:20:08.646Z,15.04
2018-03-18T12:22:34.467Z,14.90
2018-03-18T12:25:00.323Z,15.05
2018-03-18T12:27:26.137Z,14.96
2018-03-18T12:29:51.955Z,15.06
2018-03-18T12:32:17.763Z,15.18
2018-03-18T12:34:43.636Z,15.26
2018-03-18T12:37:09.464Z,15.25
2018-03-18T12:39:41.424Z,15.18
2018-03-18T12:42:07.246Z,14.70
2018-03-18T12:44:33.204Z,14.83
2018-03-18T12:46:59.016Z,15.00
2018-03-18T12:49:24.867Z,14.99
2018-03-18T12:51:50.683Z,15.15
2018-03-18T12:54:17.341Z,15.24
2018-03-18T12:56:43.983Z,15.17
2018-03-18T12:59:09.803Z,15.00
2018-03-18T13:01:35.614Z,14.96
2018-03-18T13:04:01.425Z,15.10
2018-03-18T13:06:27.238Z,15.07
2018-03-18T13:08:53.046Z,14.87
2018-03-18T13:11:19.715Z,15.02
2018-03-18T13:13:46.358Z,15.07
2018-03-18T13:16:12.351Z,14.85
2018-03-18T13:18:38.165Z,15.09
2018-03-18T13:21:04.063Z,15.35
2018-03-18T13:23:29.850Z,15.30
2018-03-18T13:25:55.664Z,15.17
2018-03-18T13:28:21.487Z,15.07
2018-03-18T13:30:47.330Z,15.01
2018-03-18T13:33:13.146Z,14.74
2018-03-18T13:35:38.950Z,15.04
2018-03-18T13:38:05.556Z,15.06
2018-03-18T13:40:31.411Z,15.07
2018-03-18T13:42:57.406Z,14.98
2018-03-18T13:45:23.217Z,15.29
2018-03-18T13:47:49.050Z,15.31
2018-03-18T13:50:14.862Z,15.27
2018-03-18T13:52:40.674Z,15.26
2018-03-18T13:55:06.511Z,15.11
2018-03-18T13:57:33.207Z,15.02
2018-03-18T13:59:59.011Z,15.01
2018-03-18T14:02:25.674Z,14.94
2018-03-18T14:04:51.522Z,15.17
2018-03-18T14:07:25.198Z,15.11
2018-03-18T14:09:51.046Z,15.14
2018-03-18T14:12:16.867Z,15.22
2018-03-18T14:14:42.672Z,15.18
2018-03-18T14:17:08.482Z,15.16
2018-03-18T14:19:34.540Z,15.13
2018-03-18T14:22:00.362Z,15.26
2018-03-18T14:24:26.175Z,14.86
2018-03-18T14:26:51.983Z,15.20
2018-03-18T14:29:17.910Z,15.28
2018-03-18T14:31:43.737Z,15.21
2018-03-18T14:34:09.563Z,15.19
2018-03-18T14:36:35.403Z,15.18
2018-03-18T14:39:01.234Z,15.10
2018-03-18T14:41:27.059Z,15.09
2018-03-18T14:43:52.927Z,15.26
2018-03-18T14:46:18.773Z,15.19
2018-03-18T14:48:45.611Z,15.36
2018-03-18T14:51:11.422Z,15.15
2018-03-18T14:53:37.275Z,15.09
2018-03-18T14:56:03.183Z,15.02
2018-03-18T14:58:31.125Z,15.19
2018-03-18T15:00:59.812Z,15.27
2018-03-18T15:03:25.827Z,15.26
2018-03-18T15:05:52.178Z,15.17
2018-03-18T15:08:18.210Z,15.03
2018-03-18T15:10:44.068Z,15.34
2018-03-18T15:13:09.883Z,15.22
2018-03-18T15:15:36.650Z,15.26
2018-03-18T15:18:02.958Z,15.19
2018-03-18T15:20:28.774Z,15.05
2018-03-18T15:22:54.579Z,15.09
2018-03-18T15:25:21.307Z,15.38
2018-03-18T15:27:47.989Z,15.26
2018-03-18T15:30:14.770Z,15.09
2018-03-18T15:32:40.625Z,15.15
2018-03-18T15:35:06.444Z,15.06
2018-03-18T15:37:32.289Z,14.86
2018-03-18T15:39:58.103Z,15.11
2018-03-18T15:42:23.944Z,15.13
2018-03-18T15:44:49.751Z,15.26
2018-03-18T15:47:15.594Z,15.05
2018-03-18T15:49:41.522Z,15.14
2018-03-18T15:52:07.377Z,15.08
2018-03-18T15:54:33.187Z,15.26
2018-03-18T15:56:59.851Z,15.33
2018-03-18T15:59:25.699Z,15.49
2018-03-18T16:01:51.506Z,15.36
2018-03-18T16:04:17.312Z,15.37
2018-03-18T16:06:43.919Z,15.31
2018-03-18T16:09:09.767Z,15.14
2018-03-18T16:11:35.609Z,15.43
2018-03-18T16:14:01.415Z,15.20
2018-03-18T16:16:27.254Z,15.36
2018-03-18T16:18:53.067Z,15.12
2018-03-18T16:21:18.926Z,15.30
2018-03-18T16:23:45.671Z,15.28
2018-03-18T16:26:11.479Z,15.28
2018-03-18T16:28:38.071Z,15.19
2018-03-18T16:31:11.896Z,15.29
2018-03-18T16:33:37.858Z,15.10
2018-03-18T16:36:03.768Z,15.25
2018-03-18T16:38:29.679Z,15.12
2018-03-18T16:40:56.440Z,15.22
2018-03-18T16:43:23.067Z,15.38
2018-03-18T16:45:48.886Z,14.74
2018-03-18T16:48:14.698Z,15.28
2018-03-18T16:50:40.505Z,15.06
2018-03-18T16:53:06.314Z,15.14
2018-03-18T16:55:32.998Z,15.15
2018-03-18T16:57:59.686Z,15.33
2018-03-18T17:00:26.330Z,15.16
2018-03-18T17:02:52.295Z,15.11
2018-03-18T17:05:18.133Z,15.06
2018-03-18T17:07:44.002Z,15.21
2018-03-18T17:10:09.866Z,15.21
2018-03-18T17:12:35.691Z,14.98
2018-03-18T17:15:01.553Z,15.14
2018-03-18T17:17:27.641Z,15.20
2018-03-18T17:19:53.480Z,15.26
2018-03-18T17:22:19.310Z,15.35
2018-03-18T17:24:45.139Z,15.20
2018-03-18T17:27:11.859Z,15.26
2018-03-18T17:29:37.704Z,14.90
2018-03-18T17:32:03.532Z,15.19
2018-03-18T17:34:29.360Z,15.26
2018-03-18T17:36:55.197Z,15.32
2018-03-18T17:39:21.039Z,15.28
2018-03-18T17:41:46.866Z,15.33
2018-03-18T17:44:18.852Z,15.35
2018-03-18T17:46:50.972Z,15.32
2018-03-18T17:49:23.015Z,15.28
2018-03-18T17:51:55.064Z,15.13
2018-03-18T17:54:27.146Z,15.23
2018-03-18T17:56:53.002Z,15.31
2018-03-18T17:59:18.840Z,15.33
2018-03-18T18:01:44.672Z,15.36
2018-03-18T18:04:10.486Z,15.41
2018-03-18T18:06:36.291Z,15.41
2018-03-18T18:09:02.126Z,15.45
2018-03-18T18:11:27.945Z,15.42
2018-03-18T18:13:55.606Z,15.44
2018-03-18T18:16:21.432Z,15.48
2018-03-18T18:18:47.259Z,15.45
2018-03-18T18:21:13.231Z,15.35
2018-03-18T18:23:39.063Z,15.15
2018-03-18T18:26:04.877Z,15.37
2018-03-18T18:28:30.743Z,15.44
2018-03-18T18:30:56.568Z,15.41
2018-03-18T18:33:22.395Z,15.43
2018-03-18T18:35:48.233Z,15.31
2018-03-18T18:38:14.059Z,15.26
2018-03-18T18:40:39.945Z,15.28
2018-03-18T18:43:05.946Z,15.42
2018-03-18T18:45:31.804Z,15.20
2018-03-18T18:47:57.735Z,15.26
2018-03-18T18:50:23.748Z,15.22
2018-03-18T18:52:49.695Z,15.22
2018-03-18T18:55:15.620Z,15.43
2018-03-18T18:57:41.567Z,15.36
2018-03-18T19:00:07.634Z,15.43
2018-03-18T19:02:33.806Z,15.34
2018-03-18T19:05:00.411Z,15.32
2018-03-18T19:07:26.687Z,15.33
2018-03-18T19:09:52.886Z,15.28
2018-03-18T19:12:18.853Z,15.40
2018-03-18T19:14:44.763Z,15.42
2018-03-18T19:17:10.697Z,15.36
2018-03-18T19:19:36.605Z,15.43
2018-03-18T19:22:02.450Z,15.26
2018-03-18T19:24:28.382Z,15.43
2018-03-18T19:26:54.243Z,15.25
2018-03-18T19:29:21.142Z,15.40
2018-03-18T19:31:47.927Z,15.37
2018-03-18T19:34:13.859Z,15.43
2018-03-18T19:36:39.788Z,15.39
2018-03-18T19:39:05.875Z,15.51
2018-03-18T19:41:31.768Z,15.30
2018-03-18T19:43:57.650Z,15.34
2018-03-18T19:46:25.339Z,15.41
2018-03-18T19:48:52.070Z,15.51
2018-03-18T19:51:17.936Z,15.35
2018-03-18T19:53:43.816Z,15.32
2018-03-18T19:56:09.690Z,15.48
2018-03-18T19:58:35.580Z,15.33
2018-03-18T20:01:01.406Z,15.38
2018-03-18T20:03:27.233Z,15.34
2018-03-18T20:05:53.106Z,15.26
2018-03-18T20:08:18.983Z,15.25
2018-03-18T20:10:44.855Z,15.39
2018-03-18T20:13:10.854Z,15.35
2018-03-18T20:15:36.867Z,15.40
2018-03-18T20:18:02.702Z,15.16
2018-03-18T20:20:28.539Z,15.30
2018-03-18T20:25:45.752Z,15.13
2018-03-18T20:28:11.585Z,15.24
2018-03-18T20:30:37.418Z,15.18
2018-03-18T20:33:04.075Z,15.18
2018-03-18T20:35:30.903Z,15.33
2018-03-18T20:37:56.864Z,15.27
2018-03-18T20:40:22.678Z,15.29
2018-03-18T20:42:48.634Z,15.48
2018-03-18T20:45:14.460Z,15.47
2018-03-18T20:47:40.459Z,15.35
2018-03-18T20:50:06.309Z,15.39
2018-03-18T20:52:32.232Z,15.46
2018-03-18T20:54:58.074Z,15.53
2018-03-18T20:57:23.883Z,15.48
2018-03-18T20:59:50.060Z,15.40
2018-03-18T21:02:15.874Z,15.46
2018-03-18T21:04:41.766Z,15.31
2018-03-18T21:07:07.943Z,15.51
2018-03-18T21:09:35.403Z,15.48
2018-03-18T21:12:01.376Z,15.46
2018-03-18T21:14:27.312Z,15.43
2018-03-18T21:16:53.154Z,15.29
2018-03-18T21:19:19.258Z,15.20
2018-03-18T21:21:45.122Z,15.42
2018-03-18T21:24:10.980Z,15.38
2018-03-18T21:26:36.789Z,15.30
2018-03-18T21:29:02.684Z,15.34
2018-03-18T21:31:28.499Z,15.42
2018-03-18T21:33:54.315Z,15.21
2018-03-18T21:36:20.363Z,15.29
2018-03-18T21:38:46.181Z,15.22
2018-03-18T21:41:11.991Z,15.43
2018-03-18T21:43:39.214Z,15.39
2018-03-18T21:46:05.022Z,15.41
2018-03-18T21:48:30.830Z,15.34
2018-03-18T21:50:56.655Z,15.31
2018-03-18T21:53:22.666Z,15.37
2018-03-18T21:55:48.519Z,15.46
2018-03-18T21:58:14.362Z,15.44
2018-03-18T22:00:41.190Z,15.41
2018-03-18T22:03:07.056Z,15.31
2018-03-18T22:05:32.891Z,15.41
2018-03-18T22:07:59.660Z,15.44
2018-03-18T22:10:25.470Z,15.33
2018-03-18T22:12:51.283Z,15.34
2018-03-18T22:15:17.086Z,15.30
2018-03-18T22:17:42.890Z,15.30
2018-03-18T22:20:08.694Z,15.34
2018-03-18T22:22:34.501Z,15.35
2018-03-18T22:25:00.347Z,15.46
2018-03-18T22:27:26.227Z,15.53
2018-03-18T22:29:52.063Z,15.44
2018-03-18T22:32:17.865Z,15.40
2018-03-18T22:34:43.661Z,15.45
2018-03-18T22:37:09.474Z,15.37
2018-03-18T22:39:35.278Z,15.43
2018-03-18T22:42:01.120Z,15.45
2018-03-18T22:44:26.930Z,15.39
2018-03-18T22:46:52.739Z,15.44
2018-03-18T22:49:18.546Z,15.40
2018-03-18T22:51:44.469Z,15.44
2018-03-18T22:54:10.274Z,15.50
2018-03-18T22:56:36.079Z,15.40
2018-03-18T22:59:01.883Z,15.34
2018-03-18T23:01:27.691Z,15.36
2018-03-18T23:03:53.496Z,15.32
2018-03-18T23:06:19.301Z,15.23
2018-03-18T23:08:45.123Z,15.40
2018-03-18T23:11:10.966Z,15.31
2018-03-18T23:13:36.783Z,15.34
2018-03-18T23:16:02.611Z,15.38
2018-03-18T23:18:28.427Z,15.32
2018-03-18T23:20:54.234Z,15.23
2018-03-18T23:23:20.078Z,15.44
2018-03-18T23:25:46.882Z,15.30
2018-03-18T23:28:12.855Z,15.34
2018-03-18T23:30:39.488Z,15.47
2018-03-18T23:33:05.387Z,15.47
2018-03-18T23:35:31.243Z,15.48
2018-03-18T23:37:57.070Z,15.30
2018-03-18T23:40:22.892Z,15.33
2018-03-18T23:42:48.742Z,15.36
2018-03-18T23:45:14.580Z,15.32
2018-03-18T23:47:40.396Z,15.21
2018-03-18T23:50:06.206Z,15.27
2018-03-18T23:52:32.007Z,15.26
2018-03-18T23:54:58.670Z,15.23
2018-03-18T23:57:24.690Z,15.30
2018-03-18T23:59:50.499Z,15.28
